RPC2670 RPVD-RPMH

Flight info

Callsign RPC2670
Flight time 0h 54m
Altitude 3500
Route VFR
Aircraft C172/L-SDFGRY/C

Departure

Time 2026-04-24 03:50
Airport Sibulan Airport (RPVD)

Arrival

Time 2026-04-24 04:45
Airport Camiguin Airport (RPMH)
Time Latitude Longitude Altitude Speed Heading
2026-04-24 03:40 9.33401 123.29366 47 ft 0 kts 265°
2026-04-24 03:44 9.33401 123.29365 47 ft 1 kts 264°
2026-04-24 03:44 9.33400 123.29360 46 ft 1 kts 267°
2026-04-24 03:45 9.33403 123.29355 47 ft 1 kts 326°
2026-04-24 03:45 9.33405 123.29354 47 ft 0 kts 348°
2026-04-24 03:48 9.33407 123.29353 47 ft 1 kts 350°
2026-04-24 03:48 9.33429 123.29353 48 ft 7 kts
2026-04-24 03:48 9.33464 123.29391 48 ft 8 kts 92°
2026-04-24 03:49 9.33463 123.29401 48 ft 8 kts 92°
2026-04-24 03:49 9.33452 123.29605 46 ft 49 kts 93°
2026-04-24 03:49 9.33434 123.30061 70 ft 76 kts 92°
2026-04-24 03:49 9.33408 123.30642 158 ft 87 kts 92°
2026-04-24 03:50 9.33406 123.31273 273 ft 90 kts 89°
2026-04-24 03:50 9.33426 123.31908 417 ft 90 kts 90°
2026-04-24 03:50 9.33456 123.32540 517 ft 91 kts 86°
2026-04-24 03:50 9.33508 123.33179 626 ft 90 kts 88°
2026-04-24 03:51 9.33553 123.33816 724 ft 91 kts 87°
2026-04-24 03:51 9.33600 123.34444 876 ft 89 kts 86°
2026-04-24 03:51 9.33679 123.35075 995 ft 92 kts 84°
2026-04-24 03:51 9.33739 123.35708 1144 ft 89 kts 86°
2026-04-24 03:52 9.33779 123.36347 1216 ft 93 kts 89°
2026-04-24 03:52 9.33800 123.37004 1318 ft 93 kts 90°
2026-04-24 03:52 9.33785 123.37648 1409 ft 91 kts 92°
2026-04-24 03:52 9.33725 123.38296 1493 ft 93 kts 95°
2026-04-24 03:53 9.33656 123.38931 1598 ft 90 kts 95°
2026-04-24 03:53 9.33605 123.39579 1665 ft 94 kts 93°
2026-04-24 03:53 9.33571 123.40215 1778 ft 89 kts 91°
2026-04-24 03:53 9.33522 123.40850 1836 ft 91 kts 96°
2026-04-24 03:54 9.33449 123.41479 1875 ft 91 kts 98°
2026-04-24 03:54 9.33307 123.42093 1950 ft 89 kts 102°
2026-04-24 03:54 9.33149 123.42707 2007 ft 90 kts 103°
2026-04-24 03:54 9.32987 123.43308 2065 ft 88 kts 103°
2026-04-24 03:55 9.32813 123.43910 2107 ft 91 kts 105°
2026-04-24 03:55 9.32645 123.44522 2177 ft 90 kts 106°
2026-04-24 03:55 9.32466 123.45122 2258 ft 88 kts 104°
2026-04-24 03:55 9.32299 123.45708 2342 ft 85 kts 105°
2026-04-24 03:56 9.32145 123.46263 2431 ft 81 kts 105°
2026-04-24 03:56 9.31991 123.46813 2516 ft 79 kts 104°
2026-04-24 03:56 9.31845 123.47319 2595 ft 73 kts 104°
2026-04-24 03:56 9.31692 123.47797 2662 ft 71 kts 105°
2026-04-24 03:57 9.31550 123.48267 2715 ft 68 kts 104°
2026-04-24 03:57 9.31412 123.48724 2782 ft 68 kts 105°
2026-04-24 03:57 9.31269 123.49183 2848 ft 69 kts 108°
2026-04-24 03:57 9.31090 123.49645 2908 ft 73 kts 108°
2026-04-24 03:58 9.30959 123.49975 2956 ft 79 kts 108°
2026-04-24 03:58 9.30742 123.50518 3032 ft 87 kts 109°
2026-04-24 03:58 9.30511 123.51105 3105 ft 92 kts 109°
2026-04-24 03:58 9.30192 123.51930 3195 ft 95 kts 110°
2026-04-24 03:59 9.30015 123.52340 3232 ft 97 kts 112°
2026-04-24 03:59 9.29726 123.52963 3286 ft 98 kts 113°
2026-04-24 03:59 9.29420 123.53585 3338 ft 99 kts 114°
2026-04-24 03:59 9.29113 123.54210 3386 ft 99 kts 114°
2026-04-24 04:00 9.28794 123.54833 3437 ft 101 kts 117°
2026-04-24 04:00 9.28426 123.55450 3491 ft 104 kts 118°
2026-04-24 04:00 9.27939 123.56287 3492 ft 104 kts 118°
2026-04-24 04:00 9.27686 123.56704 3489 ft 102 kts 118°
2026-04-24 04:01 9.27324 123.57314 3489 ft 101 kts 118°
2026-04-24 04:01 9.26961 123.57930 3488 ft 103 kts 118°
2026-04-24 04:01 9.26599 123.58547 3488 ft 104 kts 117°
2026-04-24 04:01 9.26233 123.59172 3485 ft 102 kts 118°
2026-04-24 04:02 9.25870 123.59792 3485 ft 103 kts 118°
2026-04-24 04:02 9.25501 123.60411 3485 ft 103 kts 118°
2026-04-24 04:02 9.25128 123.61059 3489 ft 112 kts 117°
2026-04-24 04:02 9.24719 123.61736 3491 ft 113 kts 118°
2026-04-24 04:03 9.24304 123.62393 3486 ft 113 kts 119°
2026-04-24 04:03 9.23901 123.63080 3480 ft 111 kts 118°
2026-04-24 04:03 9.23510 123.63728 3506 ft 107 kts 119°
2026-04-24 04:03 9.23094 123.64417 3507 ft 121 kts 118°
2026-04-24 04:04 9.22642 123.65144 3507 ft 121 kts 120°
2026-04-24 04:04 9.22251 123.65873 3499 ft 113 kts 110°
2026-04-24 04:04 9.21948 123.66614 3497 ft 114 kts 110°
2026-04-24 04:04 9.21644 123.67351 3504 ft 114 kts 109°
2026-04-24 04:05 9.21343 123.68105 3488 ft 111 kts 104°
2026-04-24 04:05 9.21328 123.68837 3484 ft 103 kts 86°
2026-04-24 04:05 9.21360 123.69547 3483 ft 100 kts 86°
2026-04-24 04:05 9.21390 123.70247 3482 ft 99 kts 86°
2026-04-24 04:06 9.21420 123.70941 3486 ft 98 kts 87°
2026-04-24 04:06 9.21449 123.71625 3487 ft 96 kts 87°
2026-04-24 04:06 9.21477 123.72297 3487 ft 95 kts 87°
2026-04-24 04:06 9.21505 123.72965 3485 ft 95 kts 86°
2026-04-24 04:07 9.21533 123.73632 3483 ft 94 kts 86°
2026-04-24 04:07 9.21560 123.74297 3483 ft 95 kts 87°
2026-04-24 04:07 9.21588 123.74966 3483 ft 95 kts 87°
2026-04-24 04:07 9.21615 123.75637 3483 ft 95 kts 87°
2026-04-24 04:08 9.21643 123.76308 3484 ft 96 kts 87°
2026-04-24 04:08 9.21670 123.76984 3486 ft 96 kts 87°
2026-04-24 04:08 9.21698 123.77661 3486 ft 96 kts 87°
2026-04-24 04:08 9.21725 123.78338 3487 ft 96 kts 87°
2026-04-24 04:09 9.21753 123.79014 3487 ft 96 kts 87°
2026-04-24 04:09 9.21781 123.79694 3484 ft 97 kts 86°
2026-04-24 04:09 9.21809 123.80376 3485 ft 97 kts 86°
2026-04-24 04:09 9.21836 123.81057 3486 ft 97 kts 87°
2026-04-24 04:10 9.21864 123.81740 3487 ft 97 kts 87°
2026-04-24 04:10 9.21892 123.82415 3487 ft 97 kts 87°
2026-04-24 04:10 9.21919 123.83100 3488 ft 98 kts 86°
2026-04-24 04:11 9.21975 123.84462 3485 ft 96 kts 87°
2026-04-24 04:11 9.22002 123.85135 3485 ft 96 kts 86°
2026-04-24 04:11 9.22030 123.85813 3485 ft 97 kts 86°
2026-04-24 04:11 9.22058 123.86495 3486 ft 97 kts 86°
2026-04-24 04:12 9.22085 123.87177 3483 ft 97 kts 87°
2026-04-24 04:12 9.22113 123.87856 3483 ft 97 kts 87°
2026-04-24 04:12 9.22141 123.88535 3483 ft 96 kts 86°
2026-04-24 04:12 9.22168 123.89213 3483 ft 97 kts 86°
2026-04-24 04:13 9.22196 123.89895 3486 ft 97 kts 86°
2026-04-24 04:13 9.22223 123.90580 3482 ft 98 kts 87°
2026-04-24 04:13 9.22251 123.91269 3483 ft 98 kts 87°
2026-04-24 04:13 9.22279 123.91956 3483 ft 98 kts 86°
2026-04-24 04:14 9.22307 123.92645 3485 ft 98 kts 87°
2026-04-24 04:14 9.22335 123.93341 3486 ft 99 kts 87°
2026-04-24 04:14 9.22363 123.94037 3486 ft 99 kts 87°
2026-04-24 04:14 9.22390 123.94728 3486 ft 98 kts 87°
2026-04-24 04:15 9.22418 123.95418 3487 ft 98 kts 86°
2026-04-24 04:15 9.22446 123.96111 3489 ft 98 kts 86°
2026-04-24 04:15 9.22474 123.96794 3490 ft 98 kts 87°
2026-04-24 04:15 9.22502 123.97478 3491 ft 97 kts 88°
2026-04-24 04:16 9.22529 123.98162 3489 ft 97 kts 88°
2026-04-24 04:16 9.22556 123.98846 3490 ft 97 kts 86°
2026-04-24 04:16 9.22584 123.99532 3487 ft 97 kts 87°
2026-04-24 04:16 9.22612 124.00211 3487 ft 97 kts 87°
2026-04-24 04:17 9.22639 124.00890 3483 ft 97 kts 88°
2026-04-24 04:17 9.22666 124.01575 3486 ft 98 kts 87°
2026-04-24 04:17 9.22694 124.02268 3488 ft 99 kts 87°
2026-04-24 04:17 9.22722 124.02962 3489 ft 98 kts 88°
2026-04-24 04:18 9.22749 124.03642 3488 ft 96 kts 88°
2026-04-24 04:18 9.22776 124.04312 3486 ft 95 kts 87°
2026-04-24 04:18 9.22804 124.04991 3486 ft 98 kts 86°
2026-04-24 04:18 9.22831 124.05680 3487 ft 98 kts 87°
2026-04-24 04:19 9.22859 124.06366 3488 ft 97 kts 88°
2026-04-24 04:19 9.22886 124.07043 3482 ft 95 kts 88°
2026-04-24 04:19 9.22912 124.07692 3483 ft 92 kts 87°
2026-04-24 04:19 9.22938 124.08337 3481 ft 92 kts 88°
2026-04-24 04:20 9.22965 124.08991 3480 ft 93 kts 87°
2026-04-24 04:20 9.22990 124.09649 3477 ft 93 kts 87°
2026-04-24 04:20 9.23017 124.10300 3476 ft 91 kts 87°
2026-04-24 04:20 9.23042 124.10935 3473 ft 90 kts 87°
2026-04-24 04:21 9.23068 124.11574 3474 ft 91 kts 86°
2026-04-24 04:21 9.23093 124.12218 3477 ft 92 kts 85°
2026-04-24 04:21 9.23120 124.12872 3476 ft 93 kts 87°
2026-04-24 04:21 9.23146 124.13525 3475 ft 93 kts 87°
2026-04-24 04:22 9.23171 124.14176 3472 ft 93 kts 86°
2026-04-24 04:22 9.23197 124.14829 3475 ft 93 kts 86°
2026-04-24 04:22 9.23224 124.15484 3475 ft 93 kts 86°
2026-04-24 04:22 9.23249 124.16133 3477 ft 91 kts 87°
2026-04-24 04:23 9.23274 124.16767 3478 ft 92 kts 86°
2026-04-24 04:23 9.23300 124.17416 3478 ft 93 kts 87°
2026-04-24 04:23 9.23326 124.18074 3477 ft 94 kts 87°
2026-04-24 04:23 9.23352 124.18730 3477 ft 93 kts 87°
2026-04-24 04:24 9.23378 124.19375 3477 ft 91 kts 87°
2026-04-24 04:24 9.23403 124.20013 3477 ft 91 kts 87°
2026-04-24 04:24 9.23429 124.20656 3476 ft 92 kts 88°
2026-04-24 04:24 9.23455 124.21305 3475 ft 93 kts 88°
2026-04-24 04:25 9.23480 124.21959 3484 ft 94 kts 87°
2026-04-24 04:25 9.23507 124.22630 3488 ft 96 kts 88°
2026-04-24 04:25 9.23533 124.23312 3488 ft 97 kts 88°
2026-04-24 04:25 9.23560 124.23987 3487 ft 95 kts 88°
2026-04-24 04:26 9.23586 124.24649 3485 ft 94 kts 88°
2026-04-24 04:26 9.23612 124.25306 3484 ft 93 kts 88°
2026-04-24 04:26 9.23638 124.25968 3488 ft 94 kts 88°
2026-04-24 04:26 9.23664 124.26633 3486 ft 95 kts 89°
2026-04-24 04:27 9.23691 124.27307 3486 ft 97 kts 88°
2026-04-24 04:27 9.23717 124.27983 3485 ft 96 kts 88°
2026-04-24 04:27 9.23743 124.28644 3485 ft 94 kts 88°
2026-04-24 04:27 9.23769 124.29301 3485 ft 93 kts 89°
2026-04-24 04:28 9.23795 124.29953 3483 ft 92 kts 89°
2026-04-24 04:28 9.23821 124.30599 3483 ft 92 kts 88°
2026-04-24 04:28 9.23847 124.31243 3481 ft 92 kts 88°
2026-04-24 04:28 9.23872 124.31896 3482 ft 93 kts 89°
2026-04-24 04:29 9.23898 124.32551 3475 ft 93 kts 89°
2026-04-24 04:29 9.23924 124.33197 3474 ft 90 kts 90°
2026-04-24 04:29 9.23948 124.33821 3472 ft 88 kts 89°
2026-04-24 04:29 9.23973 124.34433 3466 ft 87 kts 88°
2026-04-24 04:30 9.23997 124.35047 3468 ft 88 kts 88°
2026-04-24 04:30 9.24022 124.35681 3467 ft 91 kts 88°
2026-04-24 04:30 9.24047 124.36328 3472 ft 93 kts 89°
2026-04-24 04:30 9.24073 124.36979 3471 ft 92 kts 89°
2026-04-24 04:31 9.24098 124.37618 3471 ft 89 kts 88°
2026-04-24 04:31 9.24122 124.38239 3470 ft 88 kts 88°
2026-04-24 04:31 9.24146 124.38856 3468 ft 87 kts 88°
2026-04-24 04:31 9.24170 124.39470 3467 ft 88 kts 88°
2026-04-24 04:32 9.24193 124.40094 3444 ft 90 kts 89°
2026-04-24 04:32 9.24211 124.40717 3421 ft 87 kts 88°
2026-04-24 04:32 9.24252 124.41340 3364 ft 89 kts 88°
2026-04-24 04:32 9.24294 124.41961 3327 ft 88 kts 87°
2026-04-24 04:33 9.24336 124.42578 3287 ft 89 kts 88°
2026-04-24 04:33 9.24384 124.43196 3281 ft 87 kts 85°
2026-04-24 04:33 9.24448 124.43807 3264 ft 87 kts 86°
2026-04-24 04:33 9.24519 124.44412 3230 ft 87 kts 85°
2026-04-24 04:34 9.24594 124.45017 3167 ft 87 kts 86°
2026-04-24 04:34 9.24677 124.45632 3117 ft 85 kts 82°
2026-04-24 04:34 9.24750 124.46220 3068 ft 84 kts 84°
2026-04-24 04:34 9.24804 124.46806 3039 ft 85 kts 85°
2026-04-24 04:35 9.24857 124.47405 2995 ft 86 kts 87°
2026-04-24 04:35 9.24906 124.48011 2951 ft 87 kts 88°
2026-04-24 04:35 9.24953 124.48617 2888 ft 86 kts 88°
2026-04-24 04:35 9.24996 124.49220 2827 ft 86 kts 88°
2026-04-24 04:36 9.25027 124.49821 2775 ft 87 kts 88°
2026-04-24 04:36 9.25067 124.50438 2717 ft 87 kts 89°
2026-04-24 04:36 9.25092 124.51044 2701 ft 86 kts 88°
2026-04-24 04:36 9.25150 124.51648 2666 ft 88 kts 84°
2026-04-24 04:37 9.25219 124.52265 2652 ft 88 kts 86°
2026-04-24 04:37 9.25272 124.52878 2615 ft 87 kts 89°
2026-04-24 04:37 9.25285 124.53492 2531 ft 89 kts 92°
2026-04-24 04:37 9.25257 124.54118 2481 ft 88 kts 95°
2026-04-24 04:38 9.25227 124.54734 2426 ft 88 kts 95°
2026-04-24 04:38 9.25194 124.55347 2381 ft 85 kts 95°
2026-04-24 04:38 9.25150 124.55940 2329 ft 86 kts 97°
2026-04-24 04:38 9.25081 124.56552 2275 ft 87 kts 97°
2026-04-24 04:39 9.25030 124.57158 2222 ft 88 kts 95°
2026-04-24 04:39 9.24986 124.57774 2195 ft 87 kts 95°
2026-04-24 04:39 9.24937 124.58377 2145 ft 87 kts 96°
2026-04-24 04:39 9.24852 124.58991 2126 ft 88 kts 98°
2026-04-24 04:40 9.24758 124.59604 2102 ft 88 kts 97°
2026-04-24 04:40 9.24673 124.60207 2072 ft 85 kts 98°
2026-04-24 04:40 9.24607 124.60827 1923 ft 93 kts 96°
2026-04-24 04:40 9.24550 124.61436 1926 ft 84 kts 95°
2026-04-24 04:41 9.24487 124.62034 1791 ft 87 kts 94°
2026-04-24 04:41 9.24442 124.62645 1708 ft 84 kts 93°
2026-04-24 04:41 9.24425 124.63214 1661 ft 80 kts 89°
2026-04-24 04:41 9.24453 124.63790 1544 ft 83 kts 88°
2026-04-24 04:42 9.24412 124.64382 1427 ft 86 kts 95°
2026-04-24 04:42 9.24357 124.64977 1365 ft 84 kts 91°
2026-04-24 04:42 9.24325 124.65560 1336 ft 81 kts 89°
2026-04-24 04:42 9.24319 124.66106 1282 ft 78 kts 88°
2026-04-24 04:43 9.24324 124.66676 1342 ft 81 kts 86°
2026-04-24 04:43 9.24342 124.67246 1308 ft 82 kts 84°
2026-04-24 04:43 9.24414 124.67816 1171 ft 80 kts 82°
2026-04-24 04:43 9.24521 124.68349 1014 ft 76 kts 73°
2026-04-24 04:44 9.24692 124.68837 826 ft 73 kts 54°
2026-04-24 04:44 9.24917 124.69289 614 ft 73 kts 63°
2026-04-24 04:44 9.25021 124.69829 392 ft 81 kts 75°
2026-04-24 04:44 9.25197 124.70337 112 ft 69 kts 65°
2026-04-24 04:45 9.25334 124.70710 45 ft 43 kts 66°
2026-04-24 04:45 9.25413 124.70932 47 ft 20 kts 70°
2026-04-24 04:45 9.25437 124.70986 48 ft 4 kts 117°
2026-04-24 04:45 9.25410 124.70941 47 ft 14 kts 252°
2026-04-24 04:46 9.25373 124.70830 46 ft 12 kts 250°
2026-04-24 04:46 9.25345 124.70751 46 ft 15 kts 252°
2026-04-24 04:46 9.25306 124.70633 45 ft 20 kts 250°
2026-04-24 04:46 9.25257 124.70501 42 ft 15 kts 250°
2026-04-24 04:47 9.25203 124.70452 45 ft 10 kts 162°
2026-04-24 04:47 9.25181 124.70485 46 ft 5 kts 183°
2026-04-24 04:47 9.25156 124.70479 46 ft 0 kts 186°